Time;durP1;ratioP1;P1;durP2;ratioP2;P2;SDS_P1;SDS_P2;PMS_P1;PMS_P2;Temp;Humidity;BMP_temperature;BMP_pressure;BME280_temperature;BME280_humidity;BME280_pressure;Samples;Min_cycle;Max_cycle;Signal;HPM_P1;HPM_P2
2022/02/26 00:01:11;;;;;;;4.30;0.70;;;21.40;42.10;;;;;;5068517;28;20485;-49
2022/02/26 00:03:38;;;;;;;5.95;0.50;;;21.40;42.10;;;;;;5067216;28;20761;-50
2022/02/26 00:06:06;;;;;;;1.58;0.30;;;21.40;42.10;;;;;;5065987;28;20036;-52
2022/02/26 00:08:33;;;;;;;4.03;0.55;;;21.40;42.20;;;;;;5066314;28;20823;-48
2022/02/26 00:11:00;;;;;;;1.75;0.47;;;21.40;42.10;;;;;;5066490;28;20036;-49
2022/02/26 00:13:28;;;;;;;2.05;0.30;;;21.30;42.00;;;;;;5066551;28;20044;-49
2022/02/26 00:15:56;;;;;;;2.97;0.25;;;21.40;42.10;;;;;;5066786;28;20040;-47
2022/02/26 00:18:23;;;;;;;1.33;0.20;;;21.30;42.10;;;;;;5066188;28;20116;-48
2022/02/26 00:20:50;;;;;;;2.78;1.13;;;21.30;42.10;;;;;;5065101;28;20060;-44
2022/02/26 00:23:17;;;;;;;2.88;0.25;;;21.30;42.10;;;;;;5048334;28;20781;-46
2022/02/26 00:25:44;;;;;;;3.17;0.82;;;21.30;42.10;;;;;;5066009;28;20044;-44
2022/02/26 00:28:12;;;;;;;2.28;0.70;;;21.30;42.20;;;;;;5068258;28;20149;-47
2022/02/26 00:30:40;;;;;;;0.98;0.30;;;21.30;42.20;;;;;;5066572;28;20266;-47
2022/02/26 00:33:07;;;;;;;2.78;0.40;;;21.30;42.30;;;;;;5065278;28;20036;-45
2022/02/26 00:35:34;;;;;;;0.88;0.40;;;21.20;42.20;;;;;;5060794;28;20485;-47
2022/02/26 00:38:02;;;;;;;4.65;0.82;;;21.20;42.20;;;;;;5060575;28;20872;-44
2022/02/26 00:40:29;;;;;;;1.90;0.60;;;21.20;42.30;;;;;;5065572;28;20053;-45
2022/02/26 00:42:56;;;;;;;2.97;0.50;;;21.20;42.30;;;;;;5067237;28;20044;-48
2022/02/26 00:45:23;;;;;;;3.05;0.60;;;21.20;42.30;;;;;;5063333;28;20416;-46
2022/02/26 00:47:52;;;;;;;2.50;0.50;;;21.20;42.20;;;;;;5065165;28;20037;-50
2022/02/26 00:50:18;;;;;;;2.65;1.02;;;21.20;42.20;;;;;;5064949;28;20040;-47
2022/02/26 00:52:45;;;;;;;5.05;0.60;;;21.20;42.20;;;;;;5065397;28;20037;-49
2022/02/26 00:55:13;;;;;;;3.15;0.95;;;21.10;42.20;;;;;;5066854;28;20049;-47
2022/02/26 00:57:41;;;;;;;1.35;0.40;;;21.10;42.20;;;;;;5066481;28;20044;-47
2022/02/26 01:00:11;;;;;;;2.35;0.50;;;21.10;42.30;;;;;;5065032;28;20051;-51
2022/02/26 01:02:38;;;;;;;1.95;0.55;;;21.10;42.20;;;;;;5064637;28;20136;-45
2022/02/26 01:05:08;;;;;;;1.90;0.75;;;21.10;42.30;;;;;;5065149;28;20036;-46
2022/02/26 01:07:35;;;;;;;3.70;0.68;;;21.10;42.20;;;;;;5065349;28;20044;-45
2022/02/26 01:10:03;;;;;;;1.38;0.30;;;21.10;42.20;;;;;;5066955;28;20053;-44
2022/02/26 01:12:30;;;;;;;4.43;0.73;;;21.10;42.20;;;;;;5047417;28;20048;-49
2022/02/26 01:14:57;;;;;;;7.22;0.30;;;21.10;42.20;;;;;;5064681;28;20056;-46
2022/02/26 01:17:24;;;;;;;4.53;0.80;;;21.00;42.10;;;;;;5064159;28;20787;-45
2022/02/26 01:19:51;;;;;;;2.22;0.60;;;21.10;42.20;;;;;;5065114;28;20040;-48
2022/02/26 01:22:20;;;;;;;3.08;0.50;;;21.00;42.20;;;;;;5081152;28;20045;-48
2022/02/26 01:24:47;;;;;;;3.25;0.50;;;21.00;42.20;;;;;;5078929;28;20047;-47
2022/02/26 01:27:14;;;;;;;1.52;0.60;;;21.00;42.20;;;;;;5076638;28;20505;-45
2022/02/26 01:29:42;;;;;;;4.47;0.77;;;21.00;42.20;;;;;;5075248;28;20437;-45
2022/02/26 01:32:10;;;;;;;2.85;1.00;;;21.00;42.10;;;;;;5075352;28;20056;-50
2022/02/26 01:34:37;;;;;;;4.55;0.93;;;21.00;42.20;;;;;;5075513;28;20036;-46
2022/02/26 01:37:05;;;;;;;3.72;0.45;;;21.00;42.20;;;;;;5081385;28;20040;-46
2022/02/26 01:39:33;;;;;;;2.05;0.63;;;21.00;42.20;;;;;;5076248;28;20036;-45
2022/02/26 01:42:00;;;;;;;1.88;0.60;;;21.00;42.20;;;;;;5075651;28;20125;-45
2022/02/26 01:44:27;;;;;;;2.22;0.32;;;21.00;42.20;;;;;;5076804;28;20479;-44
2022/02/26 01:46:55;;;;;;;2.50;0.70;;;20.90;42.10;;;;;;5075835;28;20040;-44
2022/02/26 01:49:22;;;;;;;2.97;0.88;;;20.90;42.10;;;;;;5079445;28;20122;-44
2022/02/26 01:51:50;;;;;;;3.17;0.73;;;20.90;42.10;;;;;;5066463;28;20127;-44
2022/02/26 01:54:18;;;;;;;2.53;0.63;;;20.90;42.10;;;;;;5064907;28;20044;-45
2022/02/26 01:56:47;;;;;;;2.00;1.05;;;20.90;42.10;;;;;;5046679;28;20044;-47
2022/02/26 01:59:14;;;;;;;3.17;0.60;;;20.90;42.10;;;;;;5064643;28;20043;-45
2022/02/26 02:01:41;;;;;;;1.33;0.22;;;20.90;42.10;;;;;;5060327;28;20059;-46
2022/02/26 02:04:08;;;;;;;1.48;0.40;;;20.90;42.10;;;;;;5066130;28;20071;-48
2022/02/26 02:06:36;;;;;;;5.63;0.52;;;20.90;42.10;;;;;;5064022;28;20041;-48
2022/02/26 02:09:03;;;;;;;3.17;0.50;;;20.90;42.10;;;;;;5066212;28;20040;-50
2022/02/26 02:11:31;;;;;;;3.08;0.85;;;20.80;42.10;;;;;;5068726;28;20047;-46
2022/02/26 02:13:59;;;;;;;4.55;0.45;;;20.80;42.10;;;;;;5067909;28;20456;-46
2022/02/26 02:16:27;;;;;;;2.78;0.20;;;20.80;42.20;;;;;;5050730;28;20044;-50
2022/02/26 02:18:54;;;;;;;2.70;0.50;;;20.80;42.20;;;;;;5070115;28;20040;-49
2022/02/26 02:21:21;;;;;;;3.58;0.77;;;20.80;42.20;;;;;;5068415;28;20047;-52
2022/02/26 02:23:50;;;;;;;0.95;0.45;;;20.80;42.30;;;;;;5067910;28;20081;-51
2022/02/26 02:26:18;;;;;;;6.25;1.05;;;20.80;42.40;;;;;;5067592;28;21883;-46
2022/02/26 02:28:45;;;;;;;1.80;0.30;;;20.80;42.50;;;;;;5067689;28;20037;-52
2022/02/26 02:31:12;;;;;;;12.02;2.00;;;20.80;42.60;;;;;;5069784;28;20037;-47
2022/02/26 02:33:41;;;;;;;2.78;0.85;;;20.80;42.70;;;;;;5068604;28;20041;-48
2022/02/26 02:36:08;;;;;;;3.08;0.65;;;20.80;42.70;;;;;;5067513;28;20501;-45
2022/02/26 02:38:35;;;;;;;2.17;0.50;;;20.80;42.70;;;;;;5066922;28;20040;-51
2022/02/26 02:41:05;;;;;;;1.40;0.40;;;20.80;42.70;;;;;;5067762;28;20037;-44
2022/02/26 02:43:33;;;;;;;7.18;0.47;;;20.80;42.80;;;;;;5067870;28;20040;-45
2022/02/26 02:46:00;;;;;;;3.90;0.90;;;20.70;42.80;;;;;;5069115;28;20044;-50
2022/02/26 02:48:27;;;;;;;3.08;0.40;;;20.70;42.80;;;;;;5067836;28;20277;-46
2022/02/26 02:50:55;;;;;;;5.35;0.70;;;20.70;42.90;;;;;;5067365;28;20086;-45
2022/02/26 02:53:22;;;;;;;2.83;0.40;;;20.70;42.90;;;;;;5067651;28;20047;-46
2022/02/26 02:55:51;;;;;;;2.65;0.57;;;20.70;42.90;;;;;;5067774;28;20457;-45
2022/02/26 02:58:22;;;;;;;3.97;1.67;;;20.70;42.90;;;;;;5067855;28;20044;-47
2022/02/26 03:00:49;;;;;;;2.50;0.50;;;20.70;42.90;;;;;;5068604;28;20063;-46
2022/02/26 03:03:16;;;;;;;2.92;0.40;;;20.70;42.90;;;;;;5067441;28;20051;-47
2022/02/26 03:05:44;;;;;;;1.55;0.30;;;20.70;42.90;;;;;;5067176;28;20405;-49
2022/02/26 03:08:11;;;;;;;1.30;0.30;;;20.70;42.90;;;;;;5067307;28;20044;-48
2022/02/26 03:10:39;;;;;;;1.23;0.57;;;20.70;42.90;;;;;;5049219;28;20037;-46
2022/02/26 03:13:06;;;;;;;4.70;0.28;;;20.70;42.90;;;;;;5068859;28;20048;-47
2022/02/26 03:15:35;;;;;;;2.17;0.45;;;20.60;42.90;;;;;;5066772;28;20044;-47
2022/02/26 03:18:02;;;;;;;1.42;0.20;;;20.60;42.90;;;;;;5067298;28;20032;-49
2022/02/26 03:20:29;;;;;;;3.13;0.80;;;20.60;42.90;;;;;;5065217;28;20044;-50
2022/02/26 03:22:56;;;;;;;2.05;0.35;;;20.60;42.90;;;;;;5067351;28;20098;-48
2022/02/26 03:25:24;;;;;;;2.78;0.63;;;20.60;42.90;;;;;;5067510;28;20040;-48
2022/02/26 03:27:54;;;;;;;4.20;0.60;;;20.60;42.90;;;;;;5066439;28;20056;-51
2022/02/26 03:30:21;;;;;;;6.85;1.30;;;20.60;42.80;;;;;;5066827;28;20036;-51
2022/02/26 03:32:49;;;;;;;3.13;1.02;;;20.60;42.80;;;;;;5067242;28;20040;-51
2022/02/26 03:35:16;;;;;;;4.93;0.40;;;20.60;42.80;;;;;;5066887;28;20067;-45
2022/02/26 03:37:44;;;;;;;4.22;0.40;;;20.60;42.80;;;;;;5067199;28;20036;-50
2022/02/26 03:40:13;;;;;;;1.67;0.40;;;20.60;42.80;;;;;;5064986;28;20489;-45
2022/02/26 03:42:41;;;;;;;7.15;0.35;;;20.60;42.90;;;;;;5067713;28;20067;-48
2022/02/26 03:45:11;;;;;;;3.85;0.73;;;20.50;42.80;;;;;;5066887;28;20048;-49
2022/02/26 03:47:38;;;;;;;1.52;0.50;;;20.50;42.80;;;;;;5066309;28;20040;-45
2022/02/26 03:50:07;;;;;;;5.25;1.25;;;20.60;42.90;;;;;;5066538;28;20144;-52
2022/02/26 03:52:34;;;;;;;2.88;0.60;;;20.50;42.80;;;;;;5066878;28;20075;-46
2022/02/26 03:55:02;;;;;;;2.10;0.52;;;20.50;42.80;;;;;;5068484;28;20611;-44
2022/02/26 03:57:30;;;;;;;1.75;0.52;;;20.50;42.80;;;;;;5065821;28;20048;-47
2022/02/26 03:59:57;;;;;;;2.95;0.95;;;20.50;42.80;;;;;;5064250;28;20193;-45
2022/02/26 04:02:24;;;;;;;1.50;0.60;;;20.50;42.80;;;;;;5066353;28;20051;-45
2022/02/26 04:04:51;;;;;;;2.13;0.60;;;20.50;42.80;;;;;;5066611;28;20051;-48
2022/02/26 04:07:20;;;;;;;2.58;0.45;;;20.50;42.90;;;;;;5067185;28;20090;-50
2022/02/26 04:09:47;;;;;;;1.67;0.55;;;20.50;42.90;;;;;;5067447;28;20041;-47
2022/02/26 04:12:14;;;;;;;2.83;0.28;;;20.50;42.90;;;;;;5066572;28;20531;-44
2022/02/26 04:14:42;;;;;;;1.52;0.77;;;20.50;42.90;;;;;;5048352;28;20059;-43
2022/02/26 04:17:09;;;;;;;3.90;0.60;;;20.50;42.90;;;;;;5066708;28;20052;-43
2022/02/26 04:19:36;;;;;;;1.75;0.45;;;20.40;42.90;;;;;;5066385;28;20033;-44
2022/02/26 04:22:03;;;;;;;0.60;0.22;;;20.50;42.90;;;;;;5067701;28;20185;-43
2022/02/26 04:24:31;;;;;;;2.05;0.45;;;20.40;42.90;;;;;;5066436;28;20135;-44
2022/02/26 04:26:58;;;;;;;2.13;0.40;;;20.40;42.80;;;;;;5065903;28;20780;-46
2022/02/26 04:29:25;;;;;;;2.85;0.50;;;20.40;42.80;;;;;;5066092;28;20037;-45
2022/02/26 04:31:52;;;;;;;2.70;0.28;;;20.40;42.80;;;;;;5065510;28;20088;-43
2022/02/26 04:34:19;;;;;;;5.10;0.95;;;20.40;42.80;;;;;;5066703;28;20044;-43
2022/02/26 04:36:47;;;;;;;2.80;0.30;;;20.40;42.80;;;;;;5066332;28;20608;-45
2022/02/26 04:39:14;;;;;;;1.38;0.38;;;20.40;42.80;;;;;;5062241;28;20523;-44
2022/02/26 04:41:42;;;;;;;0.80;0.30;;;20.40;42.80;;;;;;5065508;28;20064;-44
2022/02/26 04:44:09;;;;;;;2.35;0.52;;;20.40;42.80;;;;;;5059247;28;20036;-44
2022/02/26 04:46:36;;;;;;;2.72;0.30;;;20.40;42.80;;;;;;5065493;28;20049;-44
2022/02/26 04:49:03;;;;;;;3.85;0.40;;;20.40;42.80;;;;;;5067662;28;20051;-48
2022/02/26 04:51:30;;;;;;;1.42;0.30;;;20.40;42.70;;;;;;5065247;28;20118;-49
2022/02/26 04:53:58;;;;;;;1.85;0.93;;;20.40;42.70;;;;;;5047736;28;20064;-48
2022/02/26 04:56:25;;;;;;;1.27;0.80;;;20.40;42.70;;;;;;5065405;28;20497;-51
2022/02/26 04:58:53;;;;;;;3.47;0.73;;;20.40;42.70;;;;;;5065392;28;20044;-49
2022/02/26 05:01:20;;;;;;;1.35;0.50;;;20.40;42.70;;;;;;5065468;28;20572;-47
2022/02/26 05:03:47;;;;;;;3.83;1.60;;;20.30;42.60;;;;;;5065634;28;20059;-44
2022/02/26 05:06:14;;;;;;;2.42;0.50;;;20.30;42.60;;;;;;5064233;28;20056;-45
2022/02/26 05:08:41;;;;;;;3.05;0.50;;;20.30;42.60;;;;;;5064342;28;20047;-47
2022/02/26 05:11:08;;;;;;;1.58;0.30;;;20.30;42.70;;;;;;5065001;28;20098;-46
2022/02/26 05:13:37;;;;;;;1.25;0.20;;;20.30;42.70;;;;;;5046691;28;20440;-46
2022/02/26 05:16:06;;;;;;;4.25;0.63;;;20.30;42.70;;;;;;5066627;28;20045;-48
2022/02/26 05:18:33;;;;;;;3.92;0.20;;;20.30;42.70;;;;;;5064737;28;20048;-47
2022/02/26 05:21:00;;;;;;;2.15;0.20;;;20.30;42.80;;;;;;5064827;28;20099;-49
2022/02/26 05:23:28;;;;;;;1.40;0.38;;;20.30;42.70;;;;;;5064691;28;20037;-47
2022/02/26 05:25:55;;;;;;;2.92;0.82;;;20.20;42.70;;;;;;5065062;28;20041;-46
2022/02/26 05:28:22;;;;;;;3.63;0.30;;;20.30;42.70;;;;;;5064987;28;20134;-47
2022/02/26 05:30:49;;;;;;;1.83;0.40;;;20.30;42.80;;;;;;5066327;28;20136;-45
2022/02/26 05:33:17;;;;;;;2.22;0.55;;;20.20;42.70;;;;;;5064698;28;20075;-44
2022/02/26 05:35:44;;;;;;;1.50;0.55;;;20.20;42.70;;;;;;5064424;28;20044;-48
2022/02/26 05:38:12;;;;;;;1.27;0.40;;;20.20;42.70;;;;;;5064339;28;20048;-46
2022/02/26 05:40:40;;;;;;;2.97;0.65;;;20.20;42.70;;;;;;5064694;28;20864;-46
2022/02/26 05:43:07;;;;;;;0.60;0.50;;;20.20;42.70;;;;;;5065698;28;20516;-45
2022/02/26 05:45:34;;;;;;;3.38;0.93;;;20.20;42.70;;;;;;5064810;28;20044;-46
2022/02/26 05:48:01;;;;;;;1.40;0.20;;;20.20;42.70;;;;;;5064708;28;20045;-46
2022/02/26 05:50:29;;;;;;;3.63;0.40;;;20.20;42.70;;;;;;5063422;28;20036;-47
2022/02/26 05:52:56;;;;;;;1.73;0.35;;;20.20;42.70;;;;;;5063490;28;20044;-47
2022/02/26 05:55:23;;;;;;;2.60;0.30;;;20.20;42.80;;;;;;5065153;28;20041;-45
2022/02/26 05:57:50;;;;;;;1.95;0.30;;;20.20;42.80;;;;;;5063084;28;20045;-48
2022/02/26 06:00:18;;;;;;;2.30;0.40;;;20.20;42.70;;;;;;5064690;28;20380;-48
2022/02/26 06:02:46;;;;;;;0.80;0.20;;;20.20;42.70;;;;;;5064645;28;20550;-46
2022/02/26 06:05:13;;;;;;;1.55;0.47;;;20.20;42.70;;;;;;5062771;28;20040;-47
2022/02/26 06:07:42;;;;;;;6.45;0.30;;;20.20;42.70;;;;;;5064305;28;20067;-46
2022/02/26 06:10:10;;;;;;;2.97;0.35;;;20.20;42.80;;;;;;5066934;28;20041;-45
2022/02/26 06:12:37;;;;;;;3.20;0.30;;;20.20;42.80;;;;;;5064858;28;20529;-44
2022/02/26 06:15:05;;;;;;;4.78;0.30;;;20.20;42.80;;;;;;5063655;28;20230;-44
2022/02/26 06:17:33;;;;;;;11.45;0.32;;;20.20;42.70;;;;;;5059626;28;20048;-46
2022/02/26 06:19:59;;;;;;;1.67;0.20;;;20.20;42.80;;;;;;5063201;28;20196;-44
2022/02/26 06:22:26;;;;;;;3.80;0.88;;;20.10;42.70;;;;;;5063202;28;20093;-45
2022/02/26 06:24:55;;;;;;;3.45;0.63;;;20.10;42.70;;;;;;5066356;28;20092;-43
2022/02/26 06:27:22;;;;;;;8.18;0.20;;;20.10;42.70;;;;;;5062636;28;20037;-43
2022/02/26 06:29:49;;;;;;;2.30;0.20;;;20.10;42.70;;;;;;5065297;28;20044;-45
2022/02/26 06:32:16;;;;;;;1.00;0.20;;;20.10;42.80;;;;;;5064824;28;20476;-44
2022/02/26 06:34:43;;;;;;;5.25;0.22;;;20.10;42.70;;;;;;5064781;28;20676;-44
2022/02/26 06:37:10;;;;;;;2.40;0.20;;;20.10;42.70;;;;;;5066347;28;20040;-46
2022/02/26 06:39:37;;;;;;;2.20;0.47;;;20.20;42.80;;;;;;5064343;28;20052;-47
2022/02/26 06:42:07;;;;;;;1.38;0.30;;;20.10;42.90;;;;;;5064771;28;20047;-47
2022/02/26 06:44:34;;;;;;;1.33;0.75;;;20.10;43.00;;;;;;5064787;28;20045;-48
2022/02/26 06:47:01;;;;;;;1.05;0.20;;;20.20;43.10;;;;;;5065126;28;20040;-48
2022/02/26 06:49:28;;;;;;;0.47;0.20;;;20.10;43.00;;;;;;5065088;28;20511;-58
2022/02/26 06:51:55;;;;;;;4.18;0.43;;;20.10;43.00;;;;;;5063609;28;20131;-44
2022/02/26 06:54:23;;;;;;;6.80;0.60;;;20.10;43.40;;;;;;5065652;28;20045;-43
2022/02/26 06:56:51;;;;;;;2.10;0.20;;;20.10;43.10;;;;;;5068195;28;20147;-44
2022/02/26 06:59:19;;;;;;;2.40;0.57;;;20.10;43.10;;;;;;5068085;28;20675;-43
2022/02/26 07:01:47;;;;;;;3.55;0.22;;;20.10;43.20;;;;;;5067914;28;20044;-50
2022/02/26 07:04:15;;;;;;;9.90;0.77;;;20.10;43.70;;;;;;5069854;28;20048;-43
2022/02/26 07:06:44;;;;;;;3.38;0.32;;;20.10;44.20;;;;;;5068922;28;20135;-43
2022/02/26 07:09:14;;;;;;;9.80;1.15;;;20.20;44.40;;;;;;5067931;28;20049;-53
2022/02/26 07:11:41;;;;;;;5.28;0.60;;;20.10;45.70;;;;;;5067041;28;20041;-54
2022/02/26 07:14:09;;;;;;;9.73;0.52;;;20.10;46.90;;;;;;5067365;28;20653;-50
2022/02/26 07:16:38;;;;;;;5.22;0.73;;;20.10;47.90;;;;;;5067792;28;20413;-51
2022/02/26 07:19:06;;;;;;;5.00;0.45;;;20.10;48.40;;;;;;5069574;28;20041;-50
2022/02/26 07:21:34;;;;;;;8.20;1.25;;;20.10;48.90;;;;;;5067266;28;20043;-50
2022/02/26 07:24:01;;;;;;;5.55;0.40;;;20.00;49.10;;;;;;5067332;28;20604;-54
2022/02/26 07:26:30;;;;;;;3.35;0.30;;;20.00;49.20;;;;;;5067733;28;20063;-55
2022/02/26 07:28:57;;;;;;;1.77;0.30;;;20.00;49.30;;;;;;5067666;28;20045;-54
2022/02/26 07:31:25;;;;;;;7.93;1.50;;;20.00;49.40;;;;;;5067972;28;20051;-55
2022/02/26 07:33:54;;;;;;;8.90;1.20;;;20.00;49.50;;;;;;5068481;28;20128;-47
2022/02/26 07:36:21;;;;;;;3.30;0.55;;;20.00;49.70;;;;;;5048973;28;20048;-52
2022/02/26 07:38:48;;;;;;;3.15;1.17;;;20.00;50.40;;;;;;5066803;28;20124;-52
2022/02/26 07:41:15;;;;;;;10.05;1.88;;;19.90;49.90;;;;;;5067354;28;20040;-47
2022/02/26 07:43:42;;;;;;;1.75;0.50;;;20.00;50.00;;;;;;5067325;28;20044;-48
2022/02/26 07:46:09;;;;;;;2.67;0.38;;;20.00;50.20;;;;;;5069014;28;20497;-49
2022/02/26 07:48:37;;;;;;;4.68;0.63;;;20.00;50.20;;;;;;5066787;28;20098;-52
2022/02/26 07:51:05;;;;;;;6.15;0.52;;;19.90;50.20;;;;;;5066763;28;20123;-51
2022/02/26 07:53:32;;;;;;;3.78;0.30;;;19.90;50.20;;;;;;5067401;28;20048;-54
2022/02/26 07:56:00;;;;;;;8.48;0.60;;;19.90;50.30;;;;;;5066893;28;20037;-49
2022/02/26 07:58:27;;;;;;;2.90;0.40;;;19.90;50.30;;;;;;5049281;28;20055;-53
2022/02/26 08:00:54;;;;;;;2.42;0.60;;;19.90;50.40;;;;;;5068357;28;20456;-54
2022/02/26 08:03:21;;;;;;;3.45;0.30;;;19.90;50.50;;;;;;5066626;28;20147;-54
2022/02/26 08:05:48;;;;;;;2.70;0.50;;;19.90;50.50;;;;;;5064992;28;20036;-51
2022/02/26 08:08:17;;;;;;;1.98;0.50;;;19.90;50.50;;;;;;5062114;28;20475;-53
2022/02/26 08:10:44;;;;;;;2.10;0.22;;;19.90;50.40;;;;;;5061996;28;20060;-52
2022/02/26 08:13:11;;;;;;;3.42;0.43;;;19.90;50.40;;;;;;5064204;28;20139;-51
2022/02/26 08:15:40;;;;;;;4.95;0.20;;;19.90;50.40;;;;;;5066536;28;20051;-51
2022/02/26 08:18:07;;;;;;;3.20;1.10;;;19.90;50.40;;;;;;5065225;28;20089;-54
2022/02/26 08:20:35;;;;;;;2.47;0.73;;;19.90;50.30;;;;;;5065123;28;20040;-51
2022/02/26 08:23:03;;;;;;;1.75;0.20;;;19.90;50.30;;;;;;5066470;28;20483;-51
2022/02/26 08:25:31;;;;;;;1.88;0.40;;;19.90;50.30;;;;;;5066492;28;20036;-53
2022/02/26 08:27:59;;;;;;;3.08;0.38;;;19.90;50.30;;;;;;5066424;28;20131;-53
2022/02/26 08:30:26;;;;;;;2.55;0.13;;;19.90;50.30;;;;;;5065907;28;20033;-49
2022/02/26 08:32:53;;;;;;;3.28;0.52;;;19.90;50.20;;;;;;5065446;28;20044;-51
2022/02/26 08:35:21;;;;;;;2.65;0.20;;;19.90;50.20;;;;;;5065664;28;20113;-53
2022/02/26 08:37:49;;;;;;;0.50;0.28;;;19.90;50.20;;;;;;5048089;28;20129;-52
2022/02/26 08:40:17;;;;;;;4.03;0.63;;;19.90;50.10;;;;;;5067115;28;20506;-53
2022/02/26 08:42:46;;;;;;;2.05;0.30;;;19.90;50.10;;;;;;5066176;28;20071;-50
2022/02/26 08:45:13;;;;;;;1.65;0.30;;;20.00;50.00;;;;;;5065781;28;20036;-54
2022/02/26 08:47:40;;;;;;;4.47;0.88;;;19.90;49.90;;;;;;5065267;28;20097;-51
2022/02/26 08:50:11;;;;;;;3.92;0.35;;;19.90;49.80;;;;;;5047620;28;20731;-51
2022/02/26 08:52:39;;;;;;;1.40;0.40;;;19.90;49.80;;;;;;5065390;28;20055;-51
2022/02/26 08:55:07;;;;;;;2.95;0.30;;;19.90;49.80;;;;;;5067508;28;20143;-53
2022/02/26 08:57:34;;;;;;;0.63;0.20;;;19.90;49.70;;;;;;5065011;28;20054;-57
2022/02/26 09:00:04;;;;;;;3.40;0.28;;;20.00;49.70;;;;;;5064483;28;20042;-55
2022/02/26 09:02:31;;;;;;;10.48;0.32;;;20.00;50.20;;;;;;5064680;28;20062;-55
2022/02/26 09:04:58;;;;;;;4.45;0.45;;;20.00;49.50;;;;;;5047928;28;20463;-54
2022/02/26 09:07:25;;;;;;;8.20;0.30;;;20.00;49.40;;;;;;5064733;28;20103;-52
2022/02/26 09:09:53;;;;;;;11.68;0.60;;;20.00;49.30;;;;;;5066540;28;20444;-51
2022/02/26 09:12:20;;;;;;;2.85;0.77;;;20.00;49.20;;;;;;5065111;28;20515;-52
2022/02/26 09:14:47;;;;;;;5.47;0.50;;;20.00;49.00;;;;;;5064894;28;20112;-50
2022/02/26 09:17:16;;;;;;;8.35;0.82;;;20.00;48.90;;;;;;5064725;28;20122;-51
2022/02/26 09:19:43;;;;;;;10.25;0.55;;;20.00;48.80;;;;;;5065604;28;20040;-55
2022/02/26 09:22:10;;;;;;;10.00;0.85;;;20.00;48.60;;;;;;5066747;28;20579;-55
2022/02/26 09:24:37;;;;;;;12.93;1.02;;;20.00;48.50;;;;;;5047121;28;20040;-53
2022/02/26 09:27:05;;;;;;;32.78;3.08;;;20.00;48.40;;;;;;5065547;28;20047;-50
2022/02/26 09:29:32;;;;;;;29.40;1.45;;;20.00;48.20;;;;;;5065310;28;20043;-54
2022/02/26 09:31:59;;;;;;;18.20;2.35;;;20.00;48.10;;;;;;5065039;28;20033;-55
2022/02/26 09:34:28;;;;;;;16.95;0.80;;;20.00;48.00;;;;;;5065737;28;20036;-52
2022/02/26 09:36:56;;;;;;;38.72;1.00;;;20.00;47.90;;;;;;5066611;28;20033;-53
2022/02/26 09:39:24;;;;;;;21.20;2.05;;;20.10;47.80;;;;;;5064233;28;20048;-53
2022/02/26 09:41:52;;;;;;;19.80;1.20;;;20.10;47.70;;;;;;5064796;28;20143;-50
2022/02/26 09:44:21;;;;;;;15.02;0.60;;;20.10;47.60;;;;;;5065137;28;20357;-53
2022/02/26 09:46:48;;;;;;;18.42;1.17;;;20.10;47.40;;;;;;5065214;28;20048;-54
2022/02/26 09:49:16;;;;;;;14.07;0.55;;;20.10;47.30;;;;;;5066703;28;20056;-51
2022/02/26 09:51:46;;;;;;;8.80;1.23;;;20.10;47.20;;;;;;5065818;28;20072;-53
2022/02/26 09:54:16;;;;;;;21.38;1.00;;;20.10;47.00;;;;;;5065040;28;20429;-55
2022/02/26 09:56:43;;;;;;;19.77;1.77;;;20.10;46.90;;;;;;5065300;28;20036;-53
2022/02/26 09:59:11;;;;;;;10.80;1.10;;;20.10;46.80;;;;;;5065138;28;20051;-54
2022/02/26 10:02:00;;;;;;;17.50;1.25;;;20.10;46.70;;;;;;5065166;28;20059;-53
2022/02/26 10:04:28;;;;;;;19.60;1.55;;;20.10;46.50;;;;;;5065023;28;20064;-54
2022/02/26 10:07:10;;;;;;;13.10;1.58;;;20.10;46.50;;;;;;5063184;28;20086;-50
2022/02/26 10:09:42;;;;;;;15.85;1.10;;;20.10;46.30;;;;;;5064490;28;20072;-54
2022/02/26 10:12:24;;;;;;;23.38;1.48;;;20.10;46.30;;;;;;5060364;28;20047;-52
2022/02/26 10:14:53;;;;;;;28.17;2.83;;;20.10;46.10;;;;;;5064484;28;20447;-49
2022/02/26 10:17:28;;;;;;;41.75;2.70;;;20.10;46.00;;;;;;5064752;28;20036;-49
2022/02/26 10:20:17;;;;;;;44.88;2.13;;;20.10;45.90;;;;;;5063927;28;20059;-49
2022/02/26 10:22:50;;;;;;;32.60;2.60;;;20.20;45.70;;;;;;5059485;28;20041;-53
2022/02/26 10:25:22;;;;;;;23.60;1.45;;;20.20;45.70;;;;;;5065365;28;20097;-53
2022/02/26 10:27:52;;;;;;;33.05;2.92;;;20.20;45.60;;;;;;5064722;28;20178;-50
2022/02/26 10:30:23;;;;;;;36.63;2.30;;;20.20;45.50;;;;;;5066970;28;20040;-49
2022/02/26 10:33:05;;;;;;;23.08;1.50;;;20.20;45.40;;;;;;5067950;28;20116;-50
2022/02/26 10:35:37;;;;;;;33.42;2.92;;;20.20;45.20;;;;;;5068198;28;20044;-52
2022/02/26 10:38:14;;;;;;;33.35;2.15;;;20.20;45.10;;;;;;5068222;28;20071;-55
2022/02/26 10:40:49;;;;;;;22.73;3.30;;;20.20;45.00;;;;;;5068489;28;20127;-50
2022/02/26 10:43:33;;;;;;;31.00;1.75;;;20.30;44.90;;;;;;5069422;28;20139;-52
2022/02/26 10:46:14;;;;;;;22.80;2.05;;;20.20;44.80;;;;;;5068248;28;20050;-53
2022/02/26 10:48:43;;;;;;;16.35;0.98;;;20.30;44.70;;;;;;5068510;28;20048;-54
2022/02/26 10:51:15;;;;;;;27.90;1.45;;;20.20;44.50;;;;;;5068032;28;20056;-53
2022/02/26 10:53:44;;;;;;;17.15;1.73;;;20.30;44.40;;;;;;5049949;28;20040;-54
2022/02/26 10:56:12;;;;;;;19.67;0.75;;;20.30;44.30;;;;;;5068251;28;20040;-51
2022/02/26 10:58:40;;;;;;;20.98;1.38;;;20.40;44.10;;;;;;5067514;28;20056;-54
2022/02/26 11:01:10;;;;;;;13.82;1.38;;;20.40;43.90;;;;;;5069762;28;20059;-53
2022/02/26 11:03:38;;;;;;;26.30;1.65;;;20.40;43.70;;;;;;5067737;28;20128;-56
2022/02/26 11:06:08;;;;;;;14.85;0.82;;;20.50;43.60;;;;;;5066998;28;20043;-53
2022/02/26 11:08:35;;;;;;;20.70;2.15;;;20.50;43.50;;;;;;5067757;28;20037;-49
2022/02/26 11:11:06;;;;;;;17.38;1.13;;;20.50;43.40;;;;;;5067834;28;20068;-51
2022/02/26 11:13:33;;;;;;;14.00;0.45;;;20.60;43.30;;;;;;5067501;28;20043;-54
2022/02/26 11:16:02;;;;;;;10.32;1.35;;;20.60;43.30;;;;;;5051475;28;20546;-53
2022/02/26 11:18:39;;;;;;;10.35;1.02;;;20.70;43.20;;;;;;5067740;28;20531;-52
2022/02/26 11:21:08;;;;;;;20.95;0.63;;;20.70;43.10;;;;;;5067638;28;20044;-54
2022/02/26 11:23:36;;;;;;;14.02;0.73;;;20.70;43.10;;;;;;5067767;28;20133;-56
2022/02/26 11:26:07;;;;;;;7.97;0.40;;;20.80;43.00;;;;;;5066899;28;20044;-54
2022/02/26 11:28:35;;;;;;;11.38;1.58;;;20.80;42.90;;;;;;5067748;28;20040;-55
2022/02/26 11:31:07;;;;;;;10.02;0.77;;;20.80;42.80;;;;;;5069447;28;20038;-54
2022/02/26 11:33:36;;;;;;;15.05;1.27;;;20.90;42.80;;;;;;5067191;28;20127;-55
2022/02/26 11:36:05;;;;;;;1.92;0.50;;;20.90;42.70;;;;;;5061979;28;20040;-51
2022/02/26 11:38:35;;;;;;;9.48;1.13;;;21.00;42.70;;;;;;5067489;28;20076;-53
2022/02/26 11:41:23;;;;;;;9.35;1.27;;;21.00;42.60;;;;;;5065964;28;20044;-51
2022/02/26 11:43:53;;;;;;;5.00;0.45;;;21.10;42.50;;;;;;5064475;28;20075;-53
2022/02/26 11:46:33;;;;;;;8.82;1.02;;;21.10;42.50;;;;;;5067861;28;20041;-55
2022/02/26 11:49:13;;;;;;;10.85;0.22;;;21.10;42.30;;;;;;5068294;28;20048;-53
2022/02/26 11:51:44;;;;;;;8.95;0.68;;;21.20;42.40;;;;;;5067002;28;20056;-50
2022/02/26 11:54:15;;;;;;;11.07;0.70;;;21.20;42.30;;;;;;5048948;28;20052;-55
2022/02/26 11:56:52;;;;;;;10.23;0.52;;;21.30;42.30;;;;;;5066533;28;20048;-54
2022/02/26 11:59:19;;;;;;;;;;;21.30;42.20;;;;;;5049478;28;20546;-54
2022/02/26 12:02:14;;;;;;;9.68;0.80;;;21.30;42.20;;;;;;5063000;28;19931;-55
2022/02/26 12:04:54;;;;;;;11.38;1.35;;;21.40;42.20;;;;;;4984607;28;20103;-53
2022/02/26 12:07:32;;;;;;;14.25;2.83;;;21.40;42.10;;;;;;4985149;28;20050;-51
2022/02/26 12:10:01;;;;;;;11.98;2.22;;;21.50;42.10;;;;;;4986162;28;20149;-53
2022/02/26 12:12:35;;;;;;;22.05;2.05;;;21.50;42.00;;;;;;4984566;28;20065;-54
2022/02/26 12:15:03;;;;;;;22.98;2.35;;;21.60;41.90;;;;;;4985074;28;20043;-56
2022/02/26 12:17:30;;;;;;;41.25;4.03;;;21.60;41.90;;;;;;4984321;28;20077;-55
2022/02/26 12:19:57;;;;;;;22.92;2.60;;;21.70;41.80;;;;;;4984839;28;20193;-54
2022/02/26 12:22:34;;;;;;;23.70;2.70;;;21.70;41.70;;;;;;4984809;28;20515;-55
2022/02/26 12:25:12;;;;;;;29.05;3.63;;;21.80;41.60;;;;;;4984731;28;20050;-53
2022/02/26 12:27:41;;;;;;;34.75;3.63;;;21.80;41.50;;;;;;4984371;28;20054;-54
2022/02/26 12:30:10;;;;;;;43.42;2.58;;;21.90;41.50;;;;;;4983702;28;20057;-52
2022/02/26 12:32:52;;;;;;;28.70;3.50;;;21.90;41.40;;;;;;4984310;28;20050;-54
2022/02/26 12:35:20;;;;;;;30.75;4.22;;;22.00;41.30;;;;;;4979112;28;20048;-54
2022/02/26 12:37:48;;;;;;;27.80;2.85;;;22.00;41.30;;;;;;4984377;28;20053;-52
2022/02/26 12:40:19;;;;;;;26.75;4.68;;;22.10;41.20;;;;;;5018846;28;20052;-50
2022/02/26 12:42:49;;;;;;;29.58;2.65;;;22.10;41.10;;;;;;5067011;28;20054;-51
2022/02/26 12:45:18;;;;;;;20.25;1.90;;;22.20;41.10;;;;;;5065994;28;20462;-51
2022/02/26 12:47:47;;;;;;;20.85;1.70;;;22.20;40.90;;;;;;5065922;28;20041;-48
2022/02/26 12:50:15;;;;;;;18.17;2.78;;;22.30;40.90;;;;;;5065884;28;20048;-52
2022/02/26 12:52:43;;;;;;;16.40;1.92;;;22.30;40.70;;;;;;5065167;28;20062;-53